Terminal Aerodrome Forecast
Issued by NWS

Home | Current Version | Previous Version | Text Only | Print | Product List | Glossary On
Versions: 1 2 3 4 5 6 7 8 9 10 11 12 13 14
260
FTUS45 KTFX 241737
TAFHVR
TAF
KHVR 241737Z 2418/2518 30010G18KT P6SM FEW070 FEW200
     FM250300 03009G18KT P6SM FEW180
     FM251200 28007KT P6SM FEW150=

USA.gov is the U.S. government's official web portal to all federal, state and local government web resources and services.